Time;durP1;ratioP1;P1;durP2;ratioP2;P2;SDS_P1;SDS_P2;PMS_P1;PMS_P2;Temp;Humidity;BMP_temperature;BMP_pressure;BME280_temperature;BME280_humidity;BME280_pressure;Samples;Min_cycle;Max_cycle;Signal;HPM_P1;HPM_P2
2021/12/28 00:02:16;;;;;;;;;;;17.50;99.90;;;;;;5073843;28;19909;-72
2021/12/28 00:04:43;;;;;;;;;;;17.60;99.90;;;;;;5074701;28;19931;-73
2021/12/28 00:07:09;;;;;;;;;;;17.70;99.90;;;;;;5074789;28;19916;-73
2021/12/28 00:09:36;;;;;;;;;;;17.70;99.90;;;;;;5074440;28;19921;-72
2021/12/28 00:12:03;;;;;;;;;;;18.00;99.90;;;;;;5074278;28;19908;-73
2021/12/28 00:14:35;;;;;;;;;;;18.10;99.90;;;;;;5074442;28;20456;-73
2021/12/28 00:19:48;;;;;;;;;;;18.40;99.90;;;;;;5074203;28;20057;-74
2021/12/28 00:22:15;;;;;;;;;;;18.10;99.90;;;;;;5074347;28;19915;-73
2021/12/28 00:24:43;;;;;;;;;;;17.90;99.90;;;;;;5074310;28;19936;-74
2021/12/28 00:27:09;;;;;;;;;;;17.60;99.90;;;;;;5074150;28;20009;-73
2021/12/28 00:29:36;;;;;;;;;;;17.60;99.90;;;;;;5073826;28;19924;-74
2021/12/28 00:32:02;;;;;;;;;;;17.50;99.90;;;;;;5072982;28;19909;-74
2021/12/28 00:34:31;;;;;;;;;;;17.50;99.90;;;;;;5073923;28;20287;-73
2021/12/28 00:36:58;;;;;;;;;;;17.50;99.90;;;;;;5073977;28;19908;-73
2021/12/28 00:39:24;;;;;;;;;;;17.50;99.90;;;;;;5074002;28;20338;-74
2021/12/28 00:41:51;;;;;;;;;;;17.60;99.90;;;;;;5073565;28;19947;-73
2021/12/28 00:44:18;;;;;;;;;;;17.60;99.90;;;;;;5073743;28;20004;-73
2021/12/28 00:46:45;;;;;;;;;;;17.80;99.90;;;;;;5073236;28;19909;-73
2021/12/28 00:49:11;;;;;;;;;;;18.40;99.90;;;;;;5073702;28;19927;-73
2021/12/28 00:51:38;;;;;;;;;;;18.90;99.90;;;;;;5073793;28;19959;-73
2021/12/28 00:54:05;;;;;;;;;;;19.10;99.90;;;;;;5073367;28;19940;-73
2021/12/28 00:56:31;;;;;;;;;;;19.20;99.90;;;;;;5073496;28;19951;-73
2021/12/28 00:58:58;;;;;;;;;;;19.10;99.90;;;;;;5071935;28;19912;-73
2021/12/28 01:01:24;;;;;;;;;;;19.00;99.90;;;;;;5072705;28;19908;-72
2021/12/28 01:03:51;;;;;;;;;;;19.10;99.90;;;;;;5073374;28;20393;-72
2021/12/28 01:06:18;;;;;;;;;;;19.30;99.90;;;;;;5073505;28;19908;-73
2021/12/28 01:08:44;;;;;;;;;;;19.90;99.90;;;;;;5073143;28;19927;-73
2021/12/28 01:11:11;;;;;;;;;;;20.70;99.90;;;;;;5073261;28;19917;-73
2021/12/28 01:13:38;;;;;;;;;;;20.80;99.90;;;;;;5073015;28;19981;-73
2021/12/28 01:16:04;;;;;;;;;;;20.90;99.90;;;;;;5071940;28;19932;-72
2021/12/28 01:18:31;;;;;;;;;;;21.10;99.90;;;;;;5073216;28;19912;-73
2021/12/28 01:20:58;;;;;;;;;;;21.50;99.90;;;;;;5073160;28;19958;-72
2021/12/28 01:23:26;;;;;;;;;;;21.30;99.90;;;;;;5073225;28;19911;-73
2021/12/28 01:25:52;;;;;;;;;;;21.10;99.90;;;;;;5073044;28;20264;-72
2021/12/28 01:28:19;;;;;;;;;;;20.80;99.90;;;;;;5072823;28;19909;-72
2021/12/28 01:30:46;;;;;;;;;;;20.60;99.90;;;;;;5072806;28;20342;-72
2021/12/28 01:33:13;;;;;;;;;;;20.40;99.90;;;;;;5072962;28;19908;-73
2021/12/28 01:35:40;;;;;;;;;;;20.10;99.90;;;;;;5072932;28;19909;-72
2021/12/28 01:38:06;;;;;;;;;;;19.40;99.90;;;;;;5072762;28;20003;-73
2021/12/28 01:40:35;;;;;;;;;;;18.50;99.90;;;;;;5072884;28;20430;-73
2021/12/28 01:43:12;;;;;;;;;;;17.90;99.90;;;;;;5072702;28;19912;-73
2021/12/28 01:45:43;;;;;;;;;;;17.60;99.90;;;;;;5072907;28;20274;-72
2021/12/28 01:48:13;;;;;;;;;;;17.40;99.90;;;;;;5072648;28;19909;-72
2021/12/28 01:50:40;;;;;;;;;;;17.20;99.90;;;;;;5072724;28;19916;-74
2021/12/28 01:53:07;;;;;;;;;;;17.10;99.90;;;;;;5072694;28;19915;-72
2021/12/28 01:55:34;;;;;;;;;;;17.00;99.90;;;;;;5072668;28;19999;-73
2021/12/28 01:58:01;;;;;;;;;;;16.90;99.90;;;;;;5072303;28;19912;-72
2021/12/28 02:00:28;;;;;;;;;;;16.90;99.90;;;;;;5073004;28;19909;-73
2021/12/28 02:02:55;;;;;;;;;;;17.00;99.90;;;;;;5072468;28;19908;-72
2021/12/28 02:05:22;;;;;;;;;;;17.00;99.90;;;;;;5072443;28;19997;-72
2021/12/28 02:07:49;;;;;;;;;;;17.00;99.90;;;;;;5072285;28;19909;-72
2021/12/28 02:10:17;;;;;;;;;;;17.00;99.90;;;;;;5104565;28;20278;-73
2021/12/28 02:12:43;;;;;;;;;;;17.00;99.90;;;;;;5072579;28;19909;-72
2021/12/28 02:15:13;;;;;;;;;;;17.00;99.90;;;;;;5072581;28;19908;-72
2021/12/28 02:17:40;;;;;;;;;;;17.00;99.90;;;;;;5072331;28;19909;-72
2021/12/28 02:20:10;;;;;;;;;;;17.10;99.90;;;;;;5072191;28;19932;-72
2021/12/28 02:22:37;;;;;;;;;;;17.20;99.90;;;;;;5072358;28;19948;-73
2021/12/28 02:25:04;;;;;;;;;;;17.20;99.90;;;;;;5072399;28;20280;-73
2021/12/28 02:27:31;;;;;;;;;;;17.40;99.90;;;;;;5076090;28;20386;-72
2021/12/28 02:29:58;;;;;;;;;;;17.60;99.90;;;;;;5076198;28;19928;-72
2021/12/28 02:32:26;;;;;;;;;;;18.00;99.90;;;;;;5076412;28;19908;-73
2021/12/28 02:34:53;;;;;;;;;;;18.10;99.90;;;;;;5076264;28;19909;-72
2021/12/28 02:37:19;;;;;;;;;;;18.10;99.90;;;;;;5076247;28;20321;-73
2021/12/28 02:39:46;;;;;;;;;;;18.00;99.90;;;;;;5076178;28;19917;-72
2021/12/28 02:42:15;;;;;;;;;;;18.10;99.90;;;;;;5076196;28;19961;-72
2021/12/28 02:44:41;;;;;;;;;;;18.20;99.90;;;;;;5076060;28;19936;-72
2021/12/28 02:47:08;;;;;;;;;;;18.20;99.90;;;;;;5076211;28;20343;-72
2021/12/28 02:49:37;;;;;;;;;;;18.30;99.90;;;;;;5076031;28;20363;-73
2021/12/28 02:52:09;;;;;;;;;;;18.40;99.90;;;;;;5075403;28;20347;-72
2021/12/28 02:54:39;;;;;;;;;;;18.40;99.90;;;;;;5076119;28;19915;-72
2021/12/28 02:57:06;;;;;;;;;;;18.60;99.90;;;;;;5076012;28;19915;-72
2021/12/28 02:59:33;;;;;;;;;;;19.00;99.90;;;;;;5075769;28;19916;-72
2021/12/28 03:01:59;;;;;;;;;;;19.20;99.90;;;;;;5075561;28;19915;-72
2021/12/28 03:04:27;;;;;;;;;;;19.50;99.90;;;;;;5075809;28;19915;-72
2021/12/28 03:06:55;;;;;;;;;;;19.80;99.90;;;;;;5075789;28;20019;-72
2021/12/28 03:09:22;;;;;;;;;;;20.10;99.90;;;;;;5075374;28;19924;-72
2021/12/28 03:11:49;;;;;;;;;;;20.30;99.90;;;;;;5075424;28;19919;-72
2021/12/28 03:14:16;;;;;;;;;;;20.30;99.90;;;;;;5075730;28;19916;-72
2021/12/28 03:16:42;;;;;;;;;;;20.40;99.90;;;;;;5075809;28;19947;-72
2021/12/28 03:19:09;;;;;;;;;;;20.50;99.90;;;;;;5075355;28;19913;-72
2021/12/28 03:21:36;;;;;;;;;;;20.30;99.90;;;;;;5075320;28;19914;-72
2021/12/28 03:24:02;;;;;;;;;;;20.10;99.90;;;;;;5075210;28;19909;-72
2021/12/28 03:26:29;;;;;;;;;;;19.90;99.90;;;;;;5075379;28;20275;-71
2021/12/28 03:28:56;;;;;;;;;;;19.90;99.90;;;;;;5075142;28;19940;-71
2021/12/28 03:31:23;;;;;;;;;;;19.80;99.90;;;;;;5074737;28;20405;-71
2021/12/28 03:33:51;;;;;;;;;;;19.80;99.90;;;;;;5075096;28;19915;-71
2021/12/28 03:36:18;;;;;;;;;;;19.90;99.90;;;;;;5075410;28;20359;-71
2021/12/28 03:38:46;;;;;;;;;;;19.90;99.90;;;;;;5074535;28;20312;-71
2021/12/28 03:41:13;;;;;;;;;;;20.00;99.90;;;;;;5075089;28;19956;-71
2021/12/28 03:43:42;;;;;;;;;;;20.00;99.90;;;;;;5074940;28;19912;-72
2021/12/28 03:46:09;;;;;;;;;;;20.00;99.90;;;;;;5074695;28;19909;-71
2021/12/28 03:48:36;;;;;;;;;;;19.90;99.90;;;;;;5075102;28;19916;-72
2021/12/28 03:51:03;;;;;;;;;;;19.80;99.90;;;;;;5074920;28;20339;-72
2021/12/28 03:53:30;;;;;;;;;;;19.80;99.90;;;;;;5074820;28;19908;-72
2021/12/28 03:55:56;;;;;;;;;;;19.60;99.90;;;;;;5074687;28;19908;-71
2021/12/28 03:58:23;;;;;;;;;;;19.60;99.90;;;;;;5074777;28;19908;-72
2021/12/28 04:00:50;;;;;;;;;;;19.60;99.90;;;;;;5074909;28;19948;-72
2021/12/28 04:03:17;;;;;;;;;;;19.80;99.90;;;;;;5074818;28;19908;-72
2021/12/28 04:05:44;;;;;;;;;;;19.90;99.90;;;;;;5074643;28;20355;-72
2021/12/28 04:08:19;;;;;;;;;;;19.80;99.90;;;;;;5074500;28;19940;-72
2021/12/28 04:10:52;;;;;;;;;;;19.60;99.90;;;;;;5074383;28;19921;-71
2021/12/28 04:13:20;;;;;;;;;;;19.40;99.90;;;;;;5074519;28;19909;-72
2021/12/28 04:15:47;;;;;;;;;;;19.30;99.90;;;;;;5074369;28;19908;-72
2021/12/28 04:18:14;;;;;;;;;;;19.20;99.90;;;;;;5074530;28;19970;-72
2021/12/28 04:20:41;;;;;;;;;;;19.30;99.90;;;;;;5074494;28;20382;-72
2021/12/28 04:23:08;;;;;;;;;;;19.40;99.90;;;;;;5074513;28;19955;-72
2021/12/28 04:25:35;;;;;;;;;;;19.60;99.90;;;;;;5074250;28;19961;-72
2021/12/28 04:28:01;;;;;;;;;;;19.70;99.90;;;;;;5074034;28;19991;-72
2021/12/28 04:30:28;;;;;;;;;;;19.80;99.90;;;;;;5074394;28;19917;-72
2021/12/28 04:32:55;;;;;;;;;;;20.00;99.90;;;;;;5074218;28;20352;-72
2021/12/28 04:35:21;;;;;;;;;;;20.20;99.90;;;;;;5074322;28;20015;-73
2021/12/28 04:37:48;;;;;;;;;;;20.40;99.90;;;;;;5074029;28;19908;-72
2021/12/28 04:40:15;;;;;;;;;;;20.60;99.90;;;;;;5073998;28;20323;-72
2021/12/28 04:42:42;;;;;;;;;;;20.60;99.90;;;;;;5074102;28;19935;-71
2021/12/28 04:45:10;;;;;;;;;;;20.40;99.90;;;;;;5074005;28;19909;-71
2021/12/28 04:47:37;;;;;;;;;;;20.10;99.90;;;;;;5074117;28;19908;-72
2021/12/28 04:50:05;;;;;;;;;;;19.70;99.90;;;;;;5072607;28;19917;-72
2021/12/28 04:52:36;;;;;;;;;;;19.50;99.90;;;;;;5073766;28;19912;-72
2021/12/28 04:55:05;;;;;;;;;;;19.50;99.90;;;;;;5073855;28;20389;-72
2021/12/28 04:57:32;;;;;;;;;;;19.60;99.90;;;;;;5073756;28;19912;-72
2021/12/28 04:59:59;;;;;;;;;;;19.70;99.90;;;;;;5073784;28;20003;-72
2021/12/28 05:02:26;;;;;;;;;;;19.90;99.90;;;;;;5073176;28;20255;-72
2021/12/28 05:04:52;;;;;;;;;;;20.10;99.90;;;;;;5073296;28;19919;-72
2021/12/28 05:07:19;;;;;;;;;;;20.30;99.90;;;;;;5073396;28;20359;-72
2021/12/28 05:09:45;;;;;;;;;;;20.50;99.90;;;;;;5072981;28;20398;-72
2021/12/28 05:12:12;;;;;;;;;;;20.40;99.90;;;;;;5073229;28;20300;-72
2021/12/28 05:14:41;;;;;;;;;;;20.40;99.90;;;;;;5073379;28;20412;-72
2021/12/28 05:17:08;;;;;;;;;;;20.20;99.90;;;;;;5073355;28;19908;-72
2021/12/28 05:19:35;;;;;;;;;;;19.90;99.90;;;;;;5073106;28;19908;-72
2021/12/28 05:22:02;;;;;;;;;;;19.70;99.90;;;;;;5072964;28;19919;-71
2021/12/28 05:24:28;;;;;;;;;;;19.50;99.90;;;;;;5073155;28;19912;-72
2021/12/28 05:26:55;;;;;;;;;;;19.30;99.90;;;;;;5073091;28;19909;-71
2021/12/28 05:29:21;;;;;;;;;;;19.40;99.90;;;;;;5072970;28;20396;-72
2021/12/28 05:31:48;;;;;;;;;;;19.50;99.90;;;;;;5072684;28;19924;-72
2021/12/28 05:34:15;;;;;;;;;;;19.60;99.90;;;;;;5072872;28;20362;-72
2021/12/28 05:36:41;;;;;;;;;;;19.70;99.90;;;;;;5073093;28;19915;-72
2021/12/28 05:39:08;;;;;;;;;;;19.90;99.90;;;;;;5073416;28;20359;-72
2021/12/28 05:41:35;;;;;;;;;;;20.00;99.90;;;;;;5072801;28;20393;-72
2021/12/28 05:44:01;;;;;;;;;;;20.00;99.90;;;;;;5072795;28;19966;-72
2021/12/28 05:46:28;;;;;;;;;;;19.90;99.90;;;;;;5072768;28;19945;-72
2021/12/28 05:48:55;;;;;;;;;;;19.80;99.90;;;;;;5072790;28;19991;-72
2021/12/28 05:51:21;;;;;;;;;;;19.60;99.90;;;;;;5071007;28;19916;-71
2021/12/28 05:53:48;;;;;;;;;;;19.50;99.90;;;;;;5070522;28;19908;-72
2021/12/28 05:56:15;;;;;;;;;;;19.20;99.90;;;;;;5070005;28;19931;-71
2021/12/28 05:58:42;;;;;;;;;;;18.80;99.90;;;;;;5070515;28;19920;-71
2021/12/28 06:01:08;;;;;;;;;;;18.40;99.90;;;;;;5070176;28;19914;-72
2021/12/28 06:03:35;;;;;;;;;;;18.10;99.90;;;;;;5070373;28;19951;-72
2021/12/28 06:06:02;;;;;;;;;;;17.70;99.90;;;;;;5070039;28;19966;-72
2021/12/28 06:08:28;;;;;;;;;;;17.50;99.90;;;;;;5069980;28;19935;-72
2021/12/28 06:10:59;;;;;;;;;;;17.20;99.90;;;;;;5069779;28;21315;-71
2021/12/28 06:13:26;;;;;;;;;;;17.00;99.90;;;;;;5070396;28;19916;-71
2021/12/28 06:15:52;;;;;;;;;;;17.00;99.90;;;;;;5070282;28;19913;-72
2021/12/28 06:18:19;;;;;;;;;;;17.00;99.90;;;;;;5070383;28;20393;-72
2021/12/28 06:20:46;;;;;;;;;;;17.00;99.90;;;;;;5070686;28;19912;-72
2021/12/28 06:23:12;;;;;;;;;;;17.10;99.90;;;;;;5069833;28;19965;-72
2021/12/28 06:25:40;;;;;;;;;;;17.10;99.90;;;;;;5070474;28;20011;-72
2021/12/28 06:28:08;;;;;;;;;;;17.20;99.90;;;;;;5069934;28;19991;-72
2021/12/28 06:30:35;;;;;;;;;;;17.40;99.90;;;;;;5070074;28;19916;-71
2021/12/28 06:33:02;;;;;;;;;;;17.50;99.90;;;;;;5070272;28;19959;-72
2021/12/28 06:35:29;;;;;;;;;;;17.40;99.90;;;;;;5069929;28;19908;-72
2021/12/28 06:37:55;;;;;;;;;;;17.40;99.90;;;;;;5070087;28;19908;-71
2021/12/28 06:40:22;;;;;;;;;;;17.50;99.90;;;;;;5070275;28;19913;-72
2021/12/28 06:42:49;;;;;;;;;;;17.50;99.90;;;;;;5070188;28;19970;-71
2021/12/28 06:45:15;;;;;;;;;;;17.40;99.90;;;;;;5070103;28;20544;-72
2021/12/28 06:47:42;;;;;;;;;;;17.40;99.90;;;;;;5069937;28;19921;-72
2021/12/28 06:50:09;;;;;;;;;;;17.40;99.90;;;;;;5069884;28;19924;-72
2021/12/28 06:52:36;;;;;;;;;;;17.30;99.90;;;;;;5070054;28;19912;-71
2021/12/28 06:55:03;;;;;;;;;;;17.10;99.90;;;;;;5070115;28;19916;-72
2021/12/28 06:57:30;;;;;;;;;;;17.10;99.90;;;;;;5070030;28;19947;-72
2021/12/28 06:59:57;;;;;;;;;;;17.00;99.90;;;;;;5069782;28;19912;-72
2021/12/28 07:02:24;;;;;;;;;;;17.00;99.90;;;;;;5069568;28;19973;-72
2021/12/28 07:04:52;;;;;;;;;;;17.00;99.90;;;;;;5070028;28;19935;-72
2021/12/28 07:07:19;;;;;;;;;;;17.00;99.90;;;;;;5068998;28;19908;-72
2021/12/28 07:09:46;;;;;;;;;;;17.10;99.90;;;;;;5068979;28;19924;-73
2021/12/28 07:12:13;;;;;;;;;;;17.00;99.90;;;;;;5069333;28;20309;-72
2021/12/28 07:14:39;;;;;;;;;;;16.90;99.90;;;;;;5072867;28;19920;-73
2021/12/28 07:17:06;;;;;;;;;;;16.80;99.90;;;;;;5073397;28;19912;-72
2021/12/28 07:19:33;;;;;;;;;;;16.90;99.90;;;;;;5073401;28;20418;-72
2021/12/28 07:22:00;;;;;;;;;;;17.00;99.90;;;;;;5072665;28;19941;-72
2021/12/28 07:24:26;;;;;;;;;;;17.00;99.90;;;;;;5073729;28;19912;-72
2021/12/28 07:26:53;;;;;;;;;;;16.90;99.90;;;;;;5072816;28;19908;-72
2021/12/28 07:29:20;;;;;;;;;;;17.00;99.90;;;;;;5073127;28;19970;-73
2021/12/28 07:31:47;;;;;;;;;;;17.10;99.90;;;;;;5072919;28;20291;-72
2021/12/28 07:34:13;;;;;;;;;;;17.10;99.90;;;;;;5072834;28;19987;-72
2021/12/28 07:36:40;;;;;;;;;;;17.30;99.90;;;;;;5072510;28;19915;-73
2021/12/28 07:39:07;;;;;;;;;;;17.40;99.90;;;;;;5072721;28;19913;-72
2021/12/28 07:41:34;;;;;;;;;;;17.50;99.90;;;;;;5072612;28;19912;-72
2021/12/28 07:44:00;;;;;;;;;;;17.50;99.90;;;;;;5072962;28;19955;-73
2021/12/28 07:46:27;;;;;;;;;;;17.50;99.90;;;;;;5073164;28;19916;-73
2021/12/28 07:48:54;;;;;;;;;;;17.50;99.90;;;;;;5072924;28;20362;-73
2021/12/28 07:51:20;;;;;;;;;;;17.50;99.90;;;;;;5072812;28;19920;-72
2021/12/28 07:53:47;;;;;;;;;;;17.50;99.90;;;;;;5072064;28;19908;-73
2021/12/28 07:56:14;;;;;;;;;;;17.50;99.90;;;;;;5072479;28;19913;-73
2021/12/28 07:58:40;;;;;;;;;;;17.50;99.90;;;;;;5072643;28;19909;-72
2021/12/28 08:01:07;;;;;;;;;;;17.50;99.90;;;;;;5072725;28;19913;-73
2021/12/28 08:03:34;;;;;;;;;;;17.40;99.90;;;;;;5073042;28;20285;-73
2021/12/28 08:06:00;;;;;;;;;;;17.40;99.90;;;;;;5073497;28;19999;-72
2021/12/28 08:08:27;;;;;;;;;;;17.30;99.90;;;;;;5074471;28;19908;-72
2021/12/28 08:10:53;;;;;;;;;;;17.20;99.90;;;;;;5074311;28;19924;-73
2021/12/28 08:13:21;;;;;;;;;;;17.00;99.90;;;;;;5074510;28;19915;-73
2021/12/28 08:15:48;;;;;;;;;;;16.90;99.90;;;;;;5074331;28;19954;-72
2021/12/28 08:18:15;;;;;;;;;;;16.80;99.90;;;;;;5074352;28;19908;-73
2021/12/28 08:20:41;;;;;;;;;;;16.80;99.90;;;;;;5106960;28;19909;-73
2021/12/28 08:23:08;;;;;;;;;;;16.80;99.90;;;;;;5074299;28;19972;-73
2021/12/28 08:25:35;;;;;;;;;;;16.80;99.90;;;;;;5074138;28;20381;-72
2021/12/28 08:28:04;;;;;;;;;;;16.70;99.90;;;;;;5074078;28;20003;-73
2021/12/28 08:30:34;;;;;;;;;;;16.60;99.90;;;;;;5074062;28;19916;-73
2021/12/28 08:33:02;;;;;;;;;;;16.60;99.90;;;;;;5074184;28;19912;-73
2021/12/28 08:35:29;;;;;;;;;;;16.70;99.90;;;;;;5074183;28;19909;-73
2021/12/28 08:37:56;;;;;;;;;;;16.70;99.90;;;;;;5073675;28;19909;-72
2021/12/28 08:40:23;;;;;;;;;;;16.80;99.90;;;;;;5073920;28;19908;-72
2021/12/28 08:42:50;;;;;;;;;;;16.80;99.90;;;;;;5073657;28;19917;-72
2021/12/28 08:45:17;;;;;;;;;;;16.90;99.90;;;;;;5106551;28;20278;-72
2021/12/28 08:47:44;;;;;;;;;;;16.90;99.90;;;;;;5073978;28;20444;-72
2021/12/28 08:50:11;;;;;;;;;;;16.90;99.90;;;;;;5073659;28;19952;-72
2021/12/28 08:52:38;;;;;;;;;;;16.80;99.90;;;;;;5073771;28;19920;-72
2021/12/28 08:55:05;;;;;;;;;;;16.90;99.90;;;;;;5073525;28;19909;-72
2021/12/28 08:57:32;;;;;;;;;;;16.90;99.90;;;;;;5073460;28;19913;-72
2021/12/28 08:59:59;;;;;;;;;;;16.90;99.90;;;;;;5073413;28;19909;-72
2021/12/28 09:02:26;;;;;;;;;;;17.00;99.90;;;;;;5073450;28;19916;-72
2021/12/28 09:04:52;;;;;;;;;;;17.00;99.90;;;;;;5073305;28;19912;-72
2021/12/28 09:07:19;;;;;;;;;;;17.10;99.90;;;;;;5073455;28;19915;-73
2021/12/28 09:09:46;;;;;;;;;;;17.10;99.90;;;;;;5072858;28;19920;-72
2021/12/28 09:12:13;;;;;;;;;;;17.20;99.90;;;;;;5073255;28;19916;-72
2021/12/28 09:14:40;;;;;;;;;;;17.20;99.90;;;;;;5073296;28;19912;-72
2021/12/28 09:17:07;;;;;;;;;;;17.30;99.90;;;;;;5073104;28;19909;-72
2021/12/28 09:19:34;;;;;;;;;;;17.30;99.90;;;;;;5073161;28;20367;-72
2021/12/28 09:22:01;;;;;;;;;;;17.40;99.90;;;;;;5072924;28;19909;-72
2021/12/28 09:24:27;;;;;;;;;;;17.40;99.90;;;;;;5072910;28;19936;-72
2021/12/28 09:26:54;;;;;;;;;;;17.40;99.90;;;;;;5072569;28;19908;-72
2021/12/28 09:29:21;;;;;;;;;;;17.40;99.90;;;;;;5072977;28;19909;-72
2021/12/28 09:31:48;;;;;;;;;;;17.40;99.90;;;;;;5070001;28;20350;-72
2021/12/28 09:34:15;;;;;;;;;;;17.40;99.90;;;;;;5070755;28;19997;-72
2021/12/28 09:36:42;;;;;;;;;;;17.40;99.90;;;;;;5069968;28;19962;-72
2021/12/28 09:39:08;;;;;;;;;;;17.40;99.90;;;;;;5070181;28;19977;-72
2021/12/28 09:41:35;;;;;;;;;;;17.40;99.90;;;;;;5070542;28;19913;-72
2021/12/28 09:44:02;;;;;;;;;;;17.50;99.90;;;;;;5102292;28;20363;-72
2021/12/28 09:46:29;;;;;;;;;;;17.40;99.90;;;;;;5070395;28;19951;-72
2021/12/28 09:48:55;;;;;;;;;;;17.50;99.90;;;;;;5070533;28;20391;-72
2021/12/28 09:51:22;;;;;;;;;;;17.50;99.90;;;;;;5070764;28;19920;-73
2021/12/28 09:53:51;;;;;;;;;;;17.60;99.90;;;;;;5070419;28;20363;-72
2021/12/28 09:56:18;;;;;;;;;;;17.60;99.90;;;;;;5069693;28;19912;-72
2021/12/28 09:58:44;;;;;;;;;;;17.60;99.90;;;;;;5070941;28;19968;-72
2021/12/28 10:01:11;;;;;;;;;;;17.60;99.90;;;;;;5070302;28;19954;-72
2021/12/28 10:03:38;;;;;;;;;;;17.70;99.90;;;;;;5070479;28;19913;-72
2021/12/28 10:06:18;;;;;;;;;;;17.70;99.90;;;;;;5070320;28;20356;-72
2021/12/28 10:08:45;;;;;;;;;;;17.70;99.90;;;;;;5069946;28;19958;-73
2021/12/28 10:11:12;;;;;;;;;;;17.70;99.90;;;;;;5069872;28;19924;-72
2021/12/28 10:13:38;;;;;;;;;;;17.50;99.90;;;;;;5070321;28;20415;-72
2021/12/28 10:16:05;;;;;;;;;;;17.20;99.90;;;;;;5070474;28;19913;-72
2021/12/28 10:18:32;;;;;;;;;;;17.10;99.90;;;;;;5070239;28;19999;-73
2021/12/28 10:21:00;;;;;;;;;;;17.00;99.90;;;;;;5070445;28;19936;-72
2021/12/28 10:23:28;;;;;;;;;;;17.00;99.90;;;;;;5102302;28;19923;-72
2021/12/28 10:26:00;;;;;;;;;;;17.10;99.90;;;;;;5069514;28;19961;-72
2021/12/28 10:28:32;;;;;;;;;;;17.10;99.90;;;;;;5070364;28;19920;-72
2021/12/28 10:31:19;;;;;;;;;;;17.20;99.90;;;;;;5070226;28;19962;-72
2021/12/28 10:33:45;;;;;;;;;;;17.30;99.90;;;;;;5070056;28;20393;-72
2021/12/28 10:36:13;;;;;;;;;;;17.40;99.90;;;;;;5069814;28;19966;-72
2021/12/28 10:38:41;;;;;;;;;;;17.40;99.90;;;;;;5069657;28;19932;-72
2021/12/28 10:41:10;;;;;;;;;;;17.50;99.90;;;;;;5070095;28;20351;-72
2021/12/28 10:43:37;;;;;;;;;;;17.50;99.90;;;;;;5070167;28;19969;-73
2021/12/28 10:46:12;;;;;;;;;;;17.50;99.90;;;;;;5069790;28;19915;-72
2021/12/28 10:48:42;;;;;;;;;;;17.70;99.90;;;;;;5073598;28;19991;-72
2021/12/28 10:51:13;;;;;;;;;;;17.70;99.90;;;;;;5073832;28;20291;-72
2021/12/28 10:53:49;;;;;;;;;;;17.80;99.90;;;;;;5073561;28;20359;-72
2021/12/28 10:56:16;;;;;;;;;;;17.80;99.90;;;;;;5073912;28;19956;-72
2021/12/28 10:58:47;;;;;;;;;;;17.80;99.90;;;;;;5073823;28;19959;-72
2021/12/28 11:01:22;;;;;;;;;;;17.90;99.90;;;;;;5073608;28;19915;-72
2021/12/28 11:03:56;;;;;;;;;;;17.90;99.90;;;;;;5073627;28;19931;-72
2021/12/28 11:06:24;;;;;;;;;;;17.90;99.90;;;;;;5073567;28;20371;-73
2021/12/28 11:08:55;;;;;;;;;;;17.90;99.90;;;;;;5072893;28;19921;-72
2021/12/28 11:11:24;;;;;;;;;;;17.90;99.90;;;;;;5073762;28;19924;-72
2021/12/28 11:13:58;;;;;;;;;;;17.90;99.90;;;;;;5073328;28;19944;-72
2021/12/28 11:16:26;;;;;;;;;;;17.90;99.90;;;;;;5073169;28;20003;-72
2021/12/28 11:18:54;;;;;;;;;;;17.90;99.90;;;;;;5073530;28;19970;-72
2021/12/28 11:21:22;;;;;;;;;;;17.90;99.90;;;;;;5073329;28;19908;-72
2021/12/28 11:23:50;;;;;;;;;;;17.90;99.90;;;;;;5072564;28;20005;-72
2021/12/28 11:26:20;;;;;;;;;;;17.90;99.90;;;;;;5073143;28;19935;-72
2021/12/28 11:28:58;;;;;;;;;;;17.90;99.90;;;;;;5072950;28;19983;-72
2021/12/28 11:31:45;;;;;;;;;;;17.90;99.90;;;;;;5073196;28;20398;-72
2021/12/28 11:34:13;;;;;;;;;;;17.90;99.90;;;;;;5073204;28;20321;-72
2021/12/28 11:36:45;;;;;;;;;;;17.90;99.90;;;;;;5073112;28;19962;-72
2021/12/28 11:39:18;;;;;;;;;;;17.90;99.90;;;;;;5072793;28;19909;-73
2021/12/28 11:41:46;;;;;;;;;;;17.80;99.90;;;;;;5072418;28;19916;-72
2021/12/28 11:44:13;;;;;;;;;;;17.80;99.90;;;;;;5073171;28;19913;-72
2021/12/28 11:46:39;;;;;;;;;;;17.80;99.90;;;;;;5073194;28;20441;-72
2021/12/28 11:49:08;;;;;;;;;;;17.80;99.90;;;;;;5073106;28;19953;-72
2021/12/28 11:51:35;;;;;;;;;;;17.70;99.90;;;;;;5072394;28;19925;-72
2021/12/28 11:54:07;;;;;;;;;;;17.70;99.90;;;;;;5072528;28;20345;-72
2021/12/28 11:56:36;;;;;;;;;;;17.70;99.90;;;;;;5072767;28;19918;-73
2021/12/28 11:59:03;;;;;;;;;;;17.70;99.90;;;;;;5072182;28;20398;-72
2021/12/28 12:01:48;;;;;;;;;;;17.60;99.90;;;;;;5072802;28;20009;-72
2021/12/28 12:04:33;;;;;;;;;;;17.60;99.90;;;;;;5072935;28;19913;-72
2021/12/28 12:06:59;;;;;;;;;;;17.60;99.90;;;;;;5072414;28;19919;-72
2021/12/28 12:09:26;;;;;;;;;;;17.60;99.90;;;;;;5072378;28;19924;-72
2021/12/28 12:12:13;;;;;;;;;;;17.60;99.90;;;;;;5072350;28;19922;-72
2021/12/28 12:14:56;;;;;;;;;;;17.60;99.90;;;;;;5072430;28;20370;-72
2021/12/28 12:17:29;;;;;;;;;;;17.70;99.90;;;;;;5072823;28;19912;-72
2021/12/28 12:19:57;;;;;;;;;;;17.70;99.90;;;;;;5071963;28;20042;-72
2021/12/28 12:22:30;;;;;;;;;;;17.70;99.90;;;;;;5072421;28;20264;-72
2021/12/28 12:24:57;;;;;;;;;;;17.70;99.90;;;;;;5072178;28;19926;-72
2021/12/28 12:27:42;;;;;;;;;;;17.70;99.90;;;;;;5072314;28;20363;-72
2021/12/28 12:30:18;;;;;;;;;;;17.70;99.90;;;;;;5071962;28;20324;-72
2021/12/28 12:33:06;;;;;;;;;;;17.70;99.90;;;;;;5071993;28;20016;-72
2021/12/28 12:35:45;;;;;;;;;;;17.80;99.90;;;;;;5072199;28;19916;-72
2021/12/28 12:38:12;;;;;;;;;;;17.70;99.90;;;;;;5072224;28;19916;-72
2021/12/28 12:40:59;;;;;;;;;;;17.70;99.90;;;;;;5071972;28;19912;-72
2021/12/28 12:43:27;;;;;;;;;;;17.70;99.90;;;;;;5072100;28;20345;-72
2021/12/28 12:45:54;;;;;;;;;;;17.70;99.90;;;;;;5071350;28;20275;-72
2021/12/28 12:48:47;;;;;;;;;;;17.70;99.90;;;;;;5072095;28;19912;-72
2021/12/28 12:51:23;;;;;;;;;;;17.70;99.90;;;;;;5063160;28;20287;-72
2021/12/28 12:53:54;;;;;;;;;;;17.70;99.90;;;;;;5071617;28;19909;-72
2021/12/28 12:56:22;;;;;;;;;;;17.70;99.90;;;;;;5071781;28;19912;-72
2021/12/28 12:58:50;;;;;;;;;;;17.60;99.90;;;;;;5071696;28;19912;-72
2021/12/28 13:01:26;;;;;;;;;;;17.60;99.90;;;;;;5071558;28;19920;-73
2021/12/28 13:03:54;;;;;;;;;;;17.60;99.90;;;;;;5071559;28;19918;-72
2021/12/28 13:06:38;;;;;;;;;;;17.60;99.90;;;;;;5071394;28;19927;-72
2021/12/28 13:09:09;;;;;;;;;;;17.50;99.90;;;;;;5071245;28;19917;-72
2021/12/28 13:11:35;;;;;;;;;;;17.50;99.90;;;;;;5070492;28;19952;-72
2021/12/28 13:14:02;;;;;;;;;;;17.40;99.90;;;;;;5070902;28;19913;-72
2021/12/28 13:16:29;;;;;;;;;;;17.40;99.90;;;;;;5071281;28;20051;-72
2021/12/28 13:19:09;;;;;;;;;;;17.40;99.90;;;;;;5071251;28;19915;-72
2021/12/28 13:21:36;;;;;;;;;;;17.30;99.90;;;;;;5071450;28;20428;-72
2021/12/28 13:24:09;;;;;;;;;;;17.30;99.90;;;;;;5070930;28;19912;-72
2021/12/28 13:26:43;;;;;;;;;;;17.30;99.90;;;;;;5070837;28;19915;-72
2021/12/28 13:29:10;;;;;;;;;;;17.30;99.90;;;;;;5071124;28;20328;-72
2021/12/28 13:31:37;;;;;;;;;;;17.20;99.90;;;;;;5070929;28;19966;-72
2021/12/28 13:34:03;;;;;;;;;;;17.20;99.90;;;;;;5070891;28;19912;-72
2021/12/28 13:36:30;;;;;;;;;;;17.20;99.90;;;;;;5071177;28;19908;-72
2021/12/28 13:39:06;;;;;;;;;;;17.20;99.90;;;;;;5070460;28;19909;-72
2021/12/28 13:41:33;;;;;;;;;;;17.10;99.90;;;;;;5071106;28;19908;-72
2021/12/28 13:44:03;;;;;;;;;;;17.10;99.90;;;;;;5071004;28;20271;-72
2021/12/28 13:46:30;;;;;;;;;;;17.00;99.90;;;;;;5071097;28;19908;-72
2021/12/28 13:49:00;;;;;;;;;;;16.90;99.90;;;;;;5070998;28;19952;-72
2021/12/28 13:51:29;;;;;;;;;;;16.90;99.90;;;;;;5070578;28;19969;-72
2021/12/28 13:53:57;;;;;;;;;;;16.80;99.90;;;;;;5070461;28;19969;-72
2021/12/28 13:56:33;;;;;;;;;;;16.70;99.90;;;;;;5070753;28;19908;-72
2021/12/28 13:59:00;;;;;;;;;;;16.70;99.90;;;;;;5070803;28;20413;-72
2021/12/28 14:01:28;;;;;;;;;;;16.70;99.90;;;;;;5070640;28;19931;-72
2021/12/28 14:04:05;;;;;;;;;;;16.70;99.90;;;;;;5070634;28;19916;-72
2021/12/28 14:06:39;;;;;;;;;;;16.60;99.90;;;;;;5070336;28;19916;-72
2021/12/28 14:09:11;;;;;;;;;;;16.60;99.90;;;;;;5070612;28;19927;-72
2021/12/28 14:11:41;;;;;;;;;;;16.60;99.90;;;;;;5073144;28;19977;-72
2021/12/28 14:14:17;;;;;;;;;;;16.60;99.90;;;;;;5070770;28;19919;-72
2021/12/28 14:16:54;;;;;;;;;;;16.50;99.90;;;;;;5070884;28;19942;-72
2021/12/28 14:19:20;;;;;;;;;;;16.50;99.90;;;;;;5070387;28;19912;-72
2021/12/28 14:21:47;;;;;;;;;;;16.40;99.90;;;;;;5070249;28;19912;-72
2021/12/28 14:24:14;;;;;;;;;;;16.40;99.90;;;;;;5070554;28;20005;-72
2021/12/28 14:26:42;;;;;;;;;;;16.40;99.90;;;;;;5070843;28;19923;-72